Time,TemperatureF,DewpointF,PressureIn,WindDirection,WindDirectionDegrees,WindSpeedMPH,WindSpeedGustMPH,Humidity,HourlyPrecipIn,Conditions,Clouds,dailyrainin,SoftwareType,DateUTC
2013-03-08 00:02:00,46.4,31.6,29.75,North,7,4.0,4.0,56,0.00,,,0.00,VWS V14.01,2013-03-08 08:02:00,
2013-03-08 00:07:00,46.4,31.6,29.75,NNE,17,4.0,4.0,56,0.00,,,0.00,VWS V14.01,2013-03-08 08:07:00,
2013-03-08 00:12:00,46.4,31.6,29.75,NNE,12,2.7,2.7,56,0.00,,,0.00,VWS V14.01,2013-03-08 08:12:00,
2013-03-08 00:17:00,46.4,31.6,29.75,NNE,17,3.1,3.6,56,0.00,,,0.00,VWS V14.01,2013-03-08 08:17:00,
2013-03-08 00:22:00,46.4,31.6,29.75,North,4,3.1,3.1,56,0.00,,,0.00,VWS V14.01,2013-03-08 08:22:00,
2013-03-08 00:27:00,46.4,31.6,29.75,North,7,2.7,2.7,56,0.00,,,0.00,VWS V14.01,2013-03-08 08:27:00,
2013-03-08 00:32:00,46.4,31.6,29.75,NNE,24,3.1,3.1,56,0.00,,,0.00,VWS V14.01,2013-03-08 08:32:00,
2013-03-08 00:37:00,46.2,31.4,29.75,NNE,24,0.0,0.0,56,0.00,,,0.00,VWS V14.01,2013-03-08 08:37:00,
2013-03-08 00:42:00,46.2,31.4,29.75,NNE,24,2.7,2.7,56,0.00,,,0.00,VWS V14.01,2013-03-08 08:42:00,
2013-03-08 00:47:00,46.2,31.4,29.75,NNE,24,2.2,2.2,56,0.00,,,0.00,VWS V14.01,2013-03-08 08:47:00,
2013-03-08 00:52:00,46.2,31.4,29.75,NNE,17,2.7,2.7,56,0.00,,,0.00,VWS V14.01,2013-03-08 08:52:00,
2013-03-08 00:57:00,46.2,31.4,29.75,NNE,17,0.0,2.7,56,0.00,,,0.00,VWS V14.01,2013-03-08 08:57:00,
2013-03-08 01:02:00,46.2,31.4,29.75,North,10,3.6,3.6,56,0.00,,,0.00,VWS V14.01,2013-03-08 09:02:00,
2013-03-08 01:07:00,46.2,31.4,29.75,North,10,3.6,3.6,56,0.00,,,0.00,VWS V14.01,2013-03-08 09:07:00,
2013-03-08 01:12:00,46.2,31.4,29.75,North,8,3.6,3.6,56,0.00,,,0.00,VWS V14.01,2013-03-08 09:12:00,
2013-03-08 01:17:00,46.2,31.4,29.75,North,9,3.6,3.6,56,0.00,,,0.00,VWS V14.01,2013-03-08 09:17:00,
2013-03-08 01:22:00,46.4,31.1,29.75,NE,38,4.0,4.0,55,0.00,,,0.00,VWS V14.01,2013-03-08 09:22:00,
2013-03-08 01:27:00,46.4,31.1,29.75,North,9,2.7,3.6,55,0.00,,,0.00,VWS V14.01,2013-03-08 09:27:00,
2013-03-08 01:32:00,46.2,31.0,29.75,North,357,2.7,2.7,55,0.00,,,0.00,VWS V14.01,2013-03-08 09:32:00,
2013-03-08 01:37:00,46.2,30.5,29.75,North,5,2.7,3.1,54,0.00,,,0.00,VWS V14.01,2013-03-08 09:37:00,
2013-03-08 01:42:00,45.9,30.2,29.75,North,6,2.7,2.7,54,0.00,,,0.00,VWS V14.01,2013-03-08 09:42:00,
2013-03-08 01:47:00,45.9,30.2,29.75,North,8,3.1,3.1,54,0.00,,,0.00,VWS V14.01,2013-03-08 09:47:00,
2013-03-08 01:52:00,45.7,30.0,29.75,North,357,3.1,3.6,54,0.00,,,0.00,VWS V14.01,2013-03-08 09:52:00,
2013-03-08 01:57:00,45.5,29.8,29.75,NNE,13,3.1,3.1,54,0.00,,,0.00,VWS V14.01,2013-03-08 09:57:00,
2013-03-08 02:02:00,45.3,29.7,29.75,NNE,23,4.0,4.0,54,0.00,,,0.00,VWS V14.01,2013-03-08 10:02:00,
2013-03-08 02:07:00,45.3,29.7,29.75,North,5,2.7,3.6,54,0.00,,,0.00,VWS V14.01,2013-03-08 10:07:00,
2013-03-08 02:12:00,45.1,29.5,29.75,North,3,4.0,4.0,54,0.00,,,0.00,VWS V14.01,2013-03-08 10:12:00,
2013-03-08 02:17:00,45.0,29.3,29.75,North,4,2.7,3.1,54,0.00,,,0.00,VWS V14.01,2013-03-08 10:17:00,
2013-03-08 02:22:00,45.0,28.9,29.75,North,4,3.6,3.6,53,0.00,,,0.00,VWS V14.01,2013-03-08 10:22:00,
2013-03-08 02:27:00,44.8,28.7,29.72,North,11,2.2,2.2,53,0.00,,,0.00,VWS V14.01,2013-03-08 10:27:00,
2013-03-08 02:32:00,44.6,28.5,29.72,NNE,30,3.1,3.1,53,0.00,,,0.00,VWS V14.01,2013-03-08 10:32:00,
2013-03-08 02:37:00,44.2,28.2,29.72,NNE,30,3.1,3.1,53,0.00,,,0.00,VWS V14.01,2013-03-08 10:37:00,
2013-03-08 02:42:00,44.2,28.7,29.72,NNE,30,3.1,3.1,54,0.00,,,0.00,VWS V14.01,2013-03-08 10:42:00,
2013-03-08 02:47:00,44.2,28.7,29.72,NNE,30,3.6,3.6,54,0.00,,,0.00,VWS V14.01,2013-03-08 10:47:00,
2013-03-08 02:52:00,44.2,28.7,29.72,NNE,19,3.1,4.0,54,0.00,,,0.00,VWS V14.01,2013-03-08 10:52:00,
2013-03-08 02:57:00,44.4,28.8,29.72,NNE,16,5.8,5.8,54,0.00,,,0.00,VWS V14.01,2013-03-08 10:57:00,
2013-03-08 03:02:00,44.4,28.4,29.72,NNE,21,5.8,5.8,53,0.00,,,0.00,VWS V14.01,2013-03-08 11:02:00,
2013-03-08 03:07:00,44.2,28.2,29.72,North,357,3.1,4.9,53,0.00,,,0.00,VWS V14.01,2013-03-08 11:07:00,
2013-03-08 03:12:00,44.2,27.7,29.72,North,357,6.3,6.3,52,0.00,,,0.00,VWS V14.01,2013-03-08 11:12:00,
2013-03-08 03:17:00,44.2,27.7,29.72,North,7,5.4,5.4,52,0.00,,,0.00,VWS V14.01,2013-03-08 11:17:00,
2013-03-08 03:22:00,44.2,27.3,29.72,North,7,5.4,8.1,51,0.00,,,0.00,VWS V14.01,2013-03-08 11:22:00,
2013-03-08 03:27:00,44.2,26.8,29.72,North,10,6.7,6.7,50,0.00,,,0.00,VWS V14.01,2013-03-08 11:27:00,
2013-03-08 03:32:00,44.2,26.3,29.72,NNE,19,4.0,5.8,49,0.00,,,0.00,VWS V14.01,2013-03-08 11:32:00,
2013-03-08 03:37:00,44.1,25.6,29.72,North,7,7.6,7.6,48,0.00,,,0.00,VWS V14.01,2013-03-08 11:37:00,
2013-03-08 03:42:00,44.1,25.6,29.72,North,8,8.1,8.1,48,0.00,,,0.00,VWS V14.01,2013-03-08 11:42:00,
2013-03-08 03:47:00,43.9,25.0,29.72,NNE,24,8.1,8.1,47,0.00,,,0.00,VWS V14.01,2013-03-08 11:47:00,
2013-03-08 03:52:00,43.9,24.5,29.72,North,7,5.8,5.8,46,0.00,,,0.00,VWS V14.01,2013-03-08 11:52:00,
2013-03-08 03:57:00,43.9,23.9,29.72,NNW,344,5.4,6.3,45,0.00,,,0.00,VWS V14.01,2013-03-08 11:57:00,
2013-03-08 04:02:00,43.7,22.7,29.72,NNE,13,5.4,5.8,43,0.00,,,0.00,VWS V14.01,2013-03-08 12:02:00,
2013-03-08 04:07:00,43.7,21.6,29.72,North,0,5.4,7.2,41,0.00,,,0.00,VWS V14.01,2013-03-08 12:07:00,
2013-03-08 04:12:00,43.7,21.0,29.72,NNE,16,6.7,8.3,40,0.00,,,0.00,VWS V14.01,2013-03-08 12:12:00,
2013-03-08 04:17:00,43.9,21.1,29.72,NNE,24,5.4,5.4,40,0.00,,,0.00,VWS V14.01,2013-03-08 12:17:00,
2013-03-08 04:22:00,43.7,21.0,29.72,NNE,33,5.4,7.6,40,0.00,,,0.00,VWS V14.01,2013-03-08 12:22:00,
2013-03-08 04:27:00,43.7,21.0,29.72,North,7,6.3,8.1,40,0.00,,,0.00,VWS V14.01,2013-03-08 12:27:00,
2013-03-08 04:32:00,43.7,20.4,29.72,North,5,5.4,7.2,39,0.00,,,0.00,VWS V14.01,2013-03-08 12:32:00,
2013-03-08 04:37:00,43.7,20.4,29.72,North,11,7.6,8.3,39,0.00,,,0.00,VWS V14.01,2013-03-08 12:37:00,
2013-03-08 04:42:00,43.9,20.5,29.72,NNW,330,5.4,6.7,39,0.00,,,0.00,VWS V14.01,2013-03-08 12:42:00,
2013-03-08 04:47:00,43.9,20.5,29.72,NNE,12,6.3,6.3,39,0.00,,,0.00,VWS V14.01,2013-03-08 12:47:00,
2013-03-08 04:52:00,43.7,20.4,29.72,NNE,23,6.3,8.7,39,0.00,,,0.00,VWS V14.01,2013-03-08 12:52:00,
2013-03-08 04:57:00,43.7,20.4,29.72,NNE,24,5.8,8.1,39,0.00,,,0.00,VWS V14.01,2013-03-08 12:57:00,
2013-03-08 05:02:00,43.7,20.4,29.72,NNE,29,8.3,8.3,39,0.00,,,0.00,VWS V14.01,2013-03-08 13:02:00,
2013-03-08 05:07:00,43.9,19.9,29.72,North,6,6.3,8.3,38,0.00,,,0.00,VWS V14.01,2013-03-08 13:07:00,
2013-03-08 05:12:00,43.9,19.9,29.72,North,353,6.3,7.6,38,0.00,,,0.00,VWS V14.01,2013-03-08 13:12:00,
2013-03-08 05:17:00,44.1,18.8,29.72,NNE,25,5.4,8.7,36,0.00,,,0.00,VWS V14.01,2013-03-08 13:17:00,
2013-03-08 05:22:00,44.2,18.3,29.72,NNE,18,5.8,7.6,35,0.00,,,0.00,VWS V14.01,2013-03-08 13:22:00,
2013-03-08 05:27:00,44.1,18.8,29.72,NW,324,9.2,9.2,36,0.00,,,0.00,VWS V14.01,2013-03-08 13:27:00,
2013-03-08 05:32:00,44.1,18.2,29.72,North,2,6.3,8.3,35,0.00,,,0.00,VWS V14.01,2013-03-08 13:32:00,
2013-03-08 05:38:00,44.1,18.2,29.72,NNW,339,4.9,6.3,35,0.00,,,0.00,VWS V14.01,2013-03-08 13:38:00,
2013-03-08 05:43:00,44.1,17.5,29.72,North,7,5.4,8.1,34,0.00,,,0.00,VWS V14.01,2013-03-08 13:43:00,
2013-03-08 05:48:00,44.1,16.8,29.72,North,357,5.8,7.6,33,0.00,,,0.00,VWS V14.01,2013-03-08 13:48:00,
2013-03-08 05:53:00,44.1,16.8,29.72,North,8,5.4,5.8,33,0.00,,,0.00,VWS V14.01,2013-03-08 13:53:00,
2013-03-08 05:58:00,43.9,17.4,29.72,North,3,8.1,8.1,34,0.00,,,0.00,VWS V14.01,2013-03-08 13:58:00,
2013-03-08 06:03:00,43.9,17.4,29.72,NNE,14,5.8,8.1,34,0.00,,,0.00,VWS V14.01,2013-03-08 14:03:00,
2013-03-08 06:08:00,43.9,17.4,29.72,NNE,15,8.1,8.7,34,0.00,,,0.00,VWS V14.01,2013-03-08 14:08:00,
2013-03-08 06:13:00,43.9,17.4,29.75,NNE,12,7.2,8.3,34,0.00,,,0.00,VWS V14.01,2013-03-08 14:13:00,
2013-03-08 06:18:00,43.9,18.0,29.75,North,357,9.6,9.6,35,0.00,,,0.00,VWS V14.01,2013-03-08 14:18:00,
2013-03-08 06:23:00,43.9,17.4,29.75,NNE,14,6.3,8.3,34,0.00,,,0.00,VWS V14.01,2013-03-08 14:23:00,
2013-03-08 06:28:00,43.9,17.4,29.75,North,353,8.3,10.1,34,0.00,,,0.00,VWS V14.01,2013-03-08 14:28:00,
2013-03-08 06:33:00,43.9,15.2,29.75,NNW,345,8.1,11.0,31,0.00,,,0.00,VWS V14.01,2013-03-08 14:33:00,
2013-03-08 06:38:00,44.2,14.8,29.75,North,8,7.2,7.2,30,0.00,,,0.00,VWS V14.01,2013-03-08 14:38:00,
2013-03-08 06:43:00,44.2,14.8,29.75,North,0,8.7,8.7,30,0.00,,,0.00,VWS V14.01,2013-03-08 14:43:00,
2013-03-08 06:48:00,44.2,14.8,29.75,North,357,6.3,6.3,30,0.00,,,0.00,VWS V14.01,2013-03-08 14:48:00,
2013-03-08 06:53:00,44.2,14.0,29.75,NNE,29,10.5,10.5,29,0.00,,,0.00,VWS V14.01,2013-03-08 14:53:00,
2013-03-08 06:58:00,44.4,14.2,29.78,North,3,8.1,10.1,29,0.00,,,0.00,VWS V14.01,2013-03-08 14:58:00,
2013-03-08 07:03:00,44.6,13.5,29.78,North,353,6.3,8.7,28,0.00,,,0.00,VWS V14.01,2013-03-08 15:03:00,
2013-03-08 07:08:00,44.8,13.7,29.78,North,357,6.7,6.7,28,0.00,,,0.00,VWS V14.01,2013-03-08 15:08:00,
2013-03-08 07:13:00,44.8,13.7,29.78,North,357,5.8,5.8,28,0.00,,,0.00,VWS V14.01,2013-03-08 15:13:00,
2013-03-08 07:18:00,45.1,14.0,29.78,NNE,24,8.1,8.1,28,0.00,,,0.00,VWS V14.01,2013-03-08 15:18:00,
2013-03-08 07:23:00,45.3,13.3,29.78,North,11,3.6,5.8,27,0.00,,,0.00,VWS V14.01,2013-03-08 15:23:00,
2013-03-08 07:28:00,45.5,13.5,29.78,NE,34,8.3,8.3,27,0.00,,,0.00,VWS V14.01,2013-03-08 15:28:00,
2013-03-08 07:33:00,45.9,13.8,29.78,NNE,17,4.0,4.0,27,0.00,,,0.00,VWS V14.01,2013-03-08 15:33:00,
2013-03-08 07:38:00,46.4,14.2,29.78,WNW,298,2.7,3.6,27,0.00,,,0.00,VWS V14.01,2013-03-08 15:38:00,
2013-03-08 07:43:00,46.9,14.7,29.78,North,7,3.1,3.6,27,0.00,,,0.00,VWS V14.01,2013-03-08 15:43:00,
2013-03-08 07:48:00,47.3,15.0,29.78,North,3,5.4,5.4,27,0.00,,,0.00,VWS V14.01,2013-03-08 15:48:00,
2013-03-08 07:53:00,47.8,7.6,29.78,North,357,4.0,4.0,19,0.00,,,0.00,VWS V14.01,2013-03-08 15:53:00,
2013-03-08 07:58:00,48.4,8.0,29.78,North,2,3.1,4.0,19,0.00,,,0.00,VWS V14.01,2013-03-08 15:58:00,
2013-03-08 08:03:00,48.7,8.3,29.78,NNW,331,3.1,6.3,19,0.00,,,0.00,VWS V14.01,2013-03-08 16:03:00,
2013-03-08 08:08:00,48.9,8.5,29.78,North,8,6.3,6.3,19,0.00,,,0.00,VWS V14.01,2013-03-08 16:08:00,
2013-03-08 08:13:00,49.3,8.8,29.78,NNW,328,0.0,0.0,19,0.00,,,0.00,VWS V14.01,2013-03-08 16:13:00,
2013-03-08 08:18:00,49.6,9.1,29.78,NW,312,3.6,3.6,19,0.00,,,0.00,VWS V14.01,2013-03-08 16:18:00,
2013-03-08 08:23:00,50.0,5.6,29.78,NW,323,3.1,3.1,16,0.00,,,0.00,VWS V14.01,2013-03-08 16:23:00,
2013-03-08 08:28:00,50.2,5.7,29.78,NW,322,0.0,0.0,16,0.00,,,0.00,VWS V14.01,2013-03-08 16:28:00,
2013-03-08 08:33:00,50.5,6.0,29.78,WNW,292,2.7,2.7,16,0.00,,,0.00,VWS V14.01,2013-03-08 16:33:00,
2013-03-08 08:38:00,50.5,3.1,29.78,West,281,2.2,3.6,14,0.00,,,0.00,VWS V14.01,2013-03-08 16:38:00,
2013-03-08 08:43:00,50.5,3.1,29.78,West,269,2.2,2.7,14,0.00,,,0.00,VWS V14.01,2013-03-08 16:43:00,
2013-03-08 08:48:00,50.9,6.3,29.78,West,280,2.7,3.1,16,0.00,,,0.00,VWS V14.01,2013-03-08 16:48:00,
2013-03-08 08:53:00,51.3,3.7,29.78,WNW,289,2.7,4.0,14,0.00,,,0.00,VWS V14.01,2013-03-08 16:53:00,
2013-03-08 08:58:00,51.3,3.7,29.78,West,264,4.0,4.0,14,0.00,,,0.00,VWS V14.01,2013-03-08 16:58:00,
2013-03-08 09:03:00,51.6,4.0,29.78,North,1,2.7,4.0,14,0.00,,,0.00,VWS V14.01,2013-03-08 17:03:00,
2013-03-08 09:08:00,52.2,2.8,29.78,WNW,297,5.4,5.8,13,0.00,,,0.00,VWS V14.01,2013-03-08 17:08:00,
2013-03-08 09:13:00,52.5,3.1,29.78,West,275,0.0,3.6,13,0.00,,,0.00,VWS V14.01,2013-03-08 17:13:00,
2013-03-08 09:18:00,53.1,3.5,29.78,WNW,300,2.7,2.7,13,0.00,,,0.00,VWS V14.01,2013-03-08 17:18:00,
2013-03-08 09:23:00,53.4,3.8,29.78,WNW,290,3.6,3.6,13,0.00,,,0.00,VWS V14.01,2013-03-08 17:23:00,
2013-03-08 09:28:00,53.6,4.0,29.78,NNE,18,3.6,7.6,13,0.00,,,0.00,VWS V14.01,2013-03-08 17:28:00,
2013-03-08 09:33:00,53.2,3.7,29.78,West,268,2.7,3.6,13,0.00,,,0.00,VWS V14.01,2013-03-08 17:33:00,
2013-03-08 09:38:00,52.7,3.2,29.78,WSW,238,0.0,3.1,13,0.00,,,0.00,VWS V14.01,2013-03-08 17:38:00,
2013-03-08 09:43:00,52.7,3.2,29.78,WNW,290,4.0,4.0,13,0.00,,,0.00,VWS V14.01,2013-03-08 17:43:00,
2013-03-08 09:48:00,52.3,3.0,29.78,NW,315,3.1,3.1,13,0.00,,,0.00,VWS V14.01,2013-03-08 17:48:00,
2013-03-08 09:53:00,52.0,2.7,29.78,NW,309,2.2,3.6,13,0.00,,,0.00,VWS V14.01,2013-03-08 17:53:00,
2013-03-08 09:58:00,51.6,4.0,29.78,WSW,246,2.2,4.0,14,0.00,,,0.00,VWS V14.01,2013-03-08 17:58:00,
2013-03-08 10:03:00,51.4,3.8,29.78,SW,222,3.6,4.9,14,0.00,,,0.00,VWS V14.01,2013-03-08 18:03:00,
2013-03-08 10:08:00,51.1,3.6,29.78,West,269,3.6,4.0,14,0.00,,,0.00,VWS V14.01,2013-03-08 18:08:00,
2013-03-08 10:13:00,50.9,3.4,29.78,West,276,2.7,4.9,14,0.00,,,0.00,VWS V14.01,2013-03-08 18:13:00,
2013-03-08 10:18:00,50.9,3.4,29.78,South,188,2.7,3.1,14,0.00,,,0.00,VWS V14.01,2013-03-08 18:18:00,
2013-03-08 10:23:00,51.1,3.6,29.78,SSW,207,2.7,4.0,14,0.00,,,0.00,VWS V14.01,2013-03-08 18:23:00,
2013-03-08 10:28:00,51.6,6.9,29.78,WNW,295,0.0,0.0,16,0.00,,,0.00,VWS V14.01,2013-03-08 18:28:00,
2013-03-08 10:33:00,52.0,7.2,29.78,SSW,206,3.1,3.1,16,0.00,,,0.00,VWS V14.01,2013-03-08 18:33:00,
2013-03-08 10:38:00,52.3,7.5,29.78,SW,222,4.0,4.0,16,0.00,,,0.00,VWS V14.01,2013-03-08 18:38:00,
2013-03-08 10:43:00,52.3,3.0,29.78,SW,214,0.0,0.0,13,0.00,,,0.00,VWS V14.01,2013-03-08 18:43:00,
2013-03-08 10:48:00,52.5,3.1,29.78,SW,226,0.0,2.2,13,0.00,,,0.00,VWS V14.01,2013-03-08 18:48:00,
2013-03-08 10:53:00,52.7,3.2,29.78,SSW,205,2.2,4.0,13,0.00,,,0.00,VWS V14.01,2013-03-08 18:53:00,
2013-03-08 10:58:00,52.7,3.2,29.78,SSW,211,3.1,3.6,13,0.00,,,0.00,VWS V14.01,2013-03-08 18:58:00,
2013-03-08 11:03:00,52.7,3.2,29.78,SSW,208,2.2,3.6,13,0.00,,,0.00,VWS V14.01,2013-03-08 19:03:00,
2013-03-08 11:08:00,52.9,3.4,29.78,SW,219,2.7,3.1,13,0.00,,,0.00,VWS V14.01,2013-03-08 19:08:00,
2013-03-08 11:13:00,53.6,4.0,29.78,SSW,206,0.0,3.1,13,0.00,,,0.00,VWS V14.01,2013-03-08 19:13:00,
2013-03-08 11:19:00,54.3,4.5,29.78,WSW,242,2.2,3.6,13,0.00,,,0.00,VWS V14.01,2013-03-08 19:19:00,
2013-03-08 11:23:00,55.0,5.1,29.78,SSW,200,0.0,3.1,13,0.00,,,0.00,VWS V14.01,2013-03-08 19:23:00,
2013-03-08 11:29:00,55.8,3.9,29.78,SW,219,3.1,4.0,12,0.00,,,0.00,VWS V14.01,2013-03-08 19:29:00,
2013-03-08 11:34:00,56.1,4.2,29.78,SSW,192,5.4,6.3,12,0.00,,,0.00,VWS V14.01,2013-03-08 19:34:00,
2013-03-08 11:39:00,56.8,4.8,29.78,WSW,252,3.1,3.6,12,0.00,,,0.00,VWS V14.01,2013-03-08 19:39:00,
2013-03-08 11:44:00,57.6,5.3,29.78,WSW,250,2.2,3.6,12,0.00,,,0.00,VWS V14.01,2013-03-08 19:44:00,
2013-03-08 11:49:00,57.9,5.6,29.78,SW,223,2.7,5.4,12,0.00,,,0.00,VWS V14.01,2013-03-08 19:49:00,
2013-03-08 11:54:00,58.3,5.9,29.78,SW,234,4.0,5.8,12,0.00,,,0.00,VWS V14.01,2013-03-08 19:54:00,
2013-03-08 11:59:00,58.3,5.9,29.78,SSW,211,5.8,5.8,12,0.00,,,0.00,VWS V14.01,2013-03-08 19:59:00,
2013-03-08 12:04:00,58.1,5.8,29.78,SSW,203,4.0,4.9,12,0.00,,,0.00,VWS V14.01,2013-03-08 20:04:00,
2013-03-08 12:09:00,58.6,6.2,29.78,SSW,195,3.1,5.8,12,0.00,,,0.00,VWS V14.01,2013-03-08 20:09:00,
2013-03-08 12:14:00,58.6,6.2,29.78,West,260,3.1,4.0,12,0.00,,,0.00,VWS V14.01,2013-03-08 20:14:00,
2013-03-08 12:19:00,59.0,6.5,29.78,SW,218,2.7,3.1,12,0.00,,,0.00,VWS V14.01,2013-03-08 20:19:00,
2013-03-08 12:24:00,59.2,6.6,29.78,WSW,251,3.6,5.8,12,0.00,,,0.00,VWS V14.01,2013-03-08 20:24:00,
2013-03-08 12:29:00,59.2,6.6,29.81,SW,224,2.7,5.8,12,0.00,,,0.00,VWS V14.01,2013-03-08 20:29:00,
2013-03-08 12:34:00,59.0,6.5,29.81,WSW,247,5.4,6.3,12,0.00,,,0.00,VWS V14.01,2013-03-08 20:34:00,
2013-03-08 12:39:00,59.0,6.5,29.81,SSE,153,5.4,5.4,12,0.00,,,0.00,VWS V14.01,2013-03-08 20:39:00,
2013-03-08 12:44:00,59.4,6.8,29.81,South,188,2.7,2.7,12,0.00,,,0.00,VWS V14.01,2013-03-08 20:44:00,
2013-03-08 12:49:00,59.5,6.9,29.81,West,267,5.4,5.4,12,0.00,,,0.00,VWS V14.01,2013-03-08 20:49:00,
2013-03-08 12:54:00,59.7,7.0,29.81,SSW,210,5.8,5.8,12,0.00,,,0.00,VWS V14.01,2013-03-08 20:54:00,
2013-03-08 12:59:00,59.9,7.2,29.81,WSW,244,3.6,3.6,12,0.00,,,0.00,VWS V14.01,2013-03-08 20:59:00,
2013-03-08 13:04:00,60.4,7.6,29.81,WSW,258,4.0,4.0,12,0.00,,,0.00,VWS V14.01,2013-03-08 21:04:00,
2013-03-08 13:09:00,60.4,7.6,29.81,SW,215,3.1,5.4,12,0.00,,,0.00,VWS V14.01,2013-03-08 21:09:00,
2013-03-08 13:14:00,60.4,7.6,29.81,SW,236,3.1,4.0,12,0.00,,,0.00,VWS V14.01,2013-03-08 21:14:00,
2013-03-08 13:19:00,60.3,7.5,29.81,South,187,4.0,4.0,12,0.00,,,0.00,VWS V14.01,2013-03-08 21:19:00,
2013-03-08 13:24:00,60.3,7.5,29.81,WSW,256,5.4,5.4,12,0.00,,,0.00,VWS V14.01,2013-03-08 21:24:00,
2013-03-08 13:29:00,60.3,7.5,29.81,WSW,248,3.1,6.3,12,0.00,,,0.00,VWS V14.01,2013-03-08 21:29:00,
2013-03-08 13:34:00,60.8,6.0,29.81,WSW,249,5.4,6.3,11,0.00,,,0.00,VWS V14.01,2013-03-08 21:34:00,
2013-03-08 13:39:00,61.0,6.1,29.81,WNW,286,4.0,5.4,11,0.00,,,0.00,VWS V14.01,2013-03-08 21:39:00,
2013-03-08 13:44:00,60.4,7.6,29.78,SW,216,4.0,4.0,12,0.00,,,0.00,VWS V14.01,2013-03-08 21:44:00,
2013-03-08 13:49:00,60.6,7.8,29.78,WSW,254,5.8,5.8,12,0.00,,,0.00,VWS V14.01,2013-03-08 21:49:00,
2013-03-08 13:54:00,60.4,7.6,29.78,South,187,3.6,5.8,12,0.00,,,0.00,VWS V14.01,2013-03-08 21:54:00,
2013-03-08 13:59:00,60.4,7.6,29.78,SSW,210,4.0,4.0,12,0.00,,,0.00,VWS V14.01,2013-03-08 21:59:00,
2013-03-08 14:04:00,61.3,6.4,29.78,NW,305,5.4,5.4,11,0.00,,,0.00,VWS V14.01,2013-03-08 22:04:00,
2013-03-08 14:09:00,61.3,6.4,29.78,SW,215,7.6,8.1,11,0.00,,,0.00,VWS V14.01,2013-03-08 22:09:00,
2013-03-08 14:14:00,60.6,7.8,29.81,SSW,195,4.0,4.0,12,0.00,,,0.00,VWS V14.01,2013-03-08 22:14:00,
2013-03-08 14:19:00,60.6,7.8,29.81,SW,218,3.1,8.1,12,0.00,,,0.00,VWS V14.01,2013-03-08 22:19:00,
2013-03-08 14:24:00,60.4,7.6,29.81,SW,230,8.3,9.2,12,0.00,,,0.00,VWS V14.01,2013-03-08 22:24:00,
2013-03-08 14:29:00,59.9,7.2,29.81,West,276,4.0,7.2,12,0.00,,,0.00,VWS V14.01,2013-03-08 22:29:00,
2013-03-08 14:34:00,59.7,7.0,29.81,SSW,210,3.1,5.4,12,0.00,,,0.00,VWS V14.01,2013-03-08 22:34:00,
2013-03-08 14:39:00,60.1,7.3,29.81,West,276,6.3,6.3,12,0.00,,,0.00,VWS V14.01,2013-03-08 22:39:00,
2013-03-08 14:44:00,59.7,7.0,29.81,West,262,4.0,4.0,12,0.00,,,0.00,VWS V14.01,2013-03-08 22:44:00,
2013-03-08 14:49:00,59.2,6.6,29.81,West,278,4.0,5.4,12,0.00,,,0.00,VWS V14.01,2013-03-08 22:49:00,
2013-03-08 14:54:00,59.2,6.6,29.81,West,266,4.0,5.4,12,0.00,,,0.00,VWS V14.01,2013-03-08 22:54:00,
2013-03-08 14:59:00,58.8,6.3,29.81,WNW,302,6.7,6.7,12,0.00,,,0.00,VWS V14.01,2013-03-08 22:59:00,
2013-03-08 15:04:00,58.5,6.1,29.81,West,266,6.3,8.7,12,0.00,,,0.00,VWS V14.01,2013-03-08 23:04:00,
2013-03-08 15:09:00,58.5,6.1,29.81,SW,233,4.9,5.8,12,0.00,,,0.00,VWS V14.01,2013-03-08 23:09:00,
2013-03-08 15:14:00,59.0,6.5,29.81,West,278,3.1,8.3,12,0.00,,,0.00,VWS V14.01,2013-03-08 23:14:00,
2013-03-08 15:19:00,58.8,6.3,29.81,WNW,297,4.5,8.3,12,0.00,,,0.00,VWS V14.01,2013-03-08 23:19:00,
2013-03-08 15:24:00,57.7,5.5,29.81,West,274,6.3,6.3,12,0.00,,,0.00,VWS V14.01,2013-03-08 23:24:00,
2013-03-08 15:29:00,57.7,5.5,29.81,NNW,337,8.1,11.0,12,0.00,,,0.00,VWS V14.01,2013-03-08 23:29:00,
2013-03-08 15:34:00,56.8,4.8,29.81,WNW,283,6.3,7.6,12,0.00,,,0.00,VWS V14.01,2013-03-08 23:34:00,
2013-03-08 15:39:00,56.7,4.6,29.81,West,279,8.1,8.1,12,0.00,,,0.00,VWS V14.01,2013-03-08 23:39:00,
2013-03-08 15:44:00,56.7,4.6,29.81,WSW,249,8.1,8.1,12,0.00,,,0.00,VWS V14.01,2013-03-08 23:44:00,
2013-03-08 15:49:00,56.5,4.5,29.81,WNW,284,4.9,8.7,12,0.00,,,0.00,VWS V14.01,2013-03-08 23:49:00,
2013-03-08 15:54:00,56.3,4.4,29.81,WSW,257,4.0,8.7,12,0.00,,,0.00,VWS V14.01,2013-03-08 23:54:00,
2013-03-08 16:00:00,56.3,4.4,29.81,WNW,294,9.6,9.6,12,0.00,,,0.00,VWS V14.01,2013-03-09 00:00:00,
2013-03-08 16:05:00,56.1,4.2,29.81,SSW,196,5.4,10.1,12,0.00,,,0.00,VWS V14.01,2013-03-09 00:05:00,
2013-03-08 16:10:00,55.9,4.1,29.81,WSW,257,3.1,6.3,12,0.00,,,0.00,VWS V14.01,2013-03-09 00:10:00,
2013-03-08 16:15:00,55.9,4.1,29.81,SW,234,5.4,7.2,12,0.00,,,0.00,VWS V14.01,2013-03-09 00:15:00,
2013-03-08 16:20:00,55.6,3.8,29.81,NW,305,3.6,6.3,12,0.00,,,0.00,VWS V14.01,2013-03-09 00:20:00,
2013-03-08 16:25:00,55.9,4.1,29.81,SSW,201,7.6,7.6,12,0.00,,,0.00,VWS V14.01,2013-03-09 00:25:00,
2013-03-08 16:30:00,55.9,4.1,29.81,WNW,303,8.3,12.3,12,0.00,,,0.00,VWS V14.01,2013-03-09 00:30:00,
2013-03-08 16:35:00,55.2,5.2,29.81,WNW,303,5.4,5.4,13,0.00,,,0.00,VWS V14.01,2013-03-09 00:35:00,
2013-03-08 16:40:00,54.7,4.8,29.81,West,279,9.6,9.6,13,0.00,,,0.00,VWS V14.01,2013-03-09 00:40:00,
2013-03-08 16:45:00,54.1,4.4,29.81,SW,233,5.4,10.1,13,0.00,,,0.00,VWS V14.01,2013-03-09 00:45:00,
2013-03-08 16:50:00,53.8,4.1,29.81,West,281,2.7,8.1,13,0.00,,,0.00,VWS V14.01,2013-03-09 00:50:00,
2013-03-08 16:55:00,53.6,4.0,29.81,WNW,293,2.7,7.6,13,0.00,,,0.00,VWS V14.01,2013-03-09 00:55:00,
2013-03-08 17:00:00,53.2,3.7,29.81,WNW,284,11.9,11.9,13,0.00,,,0.00,VWS V14.01,2013-03-09 01:00:00,
2013-03-08 17:05:00,53.1,3.5,29.81,WNW,289,4.0,4.0,13,0.00,,,0.00,VWS V14.01,2013-03-09 01:05:00,
2013-03-08 17:10:00,52.9,3.4,29.81,West,261,4.0,4.0,13,0.00,,,0.00,VWS V14.01,2013-03-09 01:10:00,
2013-03-08 17:15:00,52.5,3.1,29.81,South,186,5.4,7.6,13,0.00,,,0.00,VWS V14.01,2013-03-09 01:15:00,
2013-03-08 17:20:00,52.3,3.0,29.81,WSW,257,7.2,8.1,13,0.00,,,0.00,VWS V14.01,2013-03-09 01:20:00,
2013-03-08 17:25:00,52.2,2.8,29.81,WNW,282,5.4,5.8,13,0.00,,,0.00,VWS V14.01,2013-03-09 01:25:00,
2013-03-08 17:30:00,51.6,4.0,29.81,West,265,5.8,6.3,14,0.00,,,0.00,VWS V14.01,2013-03-09 01:30:00,
2013-03-08 17:35:00,51.4,3.8,29.81,West,272,8.1,11.0,14,0.00,,,0.00,VWS V14.01,2013-03-09 01:35:00,
2013-03-08 17:40:00,51.1,6.5,29.81,West,275,5.4,5.4,16,0.00,,,0.00,VWS V14.01,2013-03-09 01:40:00,
2013-03-08 17:45:00,50.7,6.2,29.84,WSW,237,3.6,9.6,16,0.00,,,0.00,VWS V14.01,2013-03-09 01:45:00,
2013-03-08 17:50:00,50.4,5.9,29.84,NW,326,8.1,8.3,16,0.00,,,0.00,VWS V14.01,2013-03-09 01:50:00,
2013-03-08 17:55:00,50.0,9.4,29.84,SW,216,4.0,5.4,19,0.00,,,0.00,VWS V14.01,2013-03-09 01:55:00,
2013-03-08 18:00:00,49.6,9.1,29.84,NW,314,5.4,8.1,19,0.00,,,0.00,VWS V14.01,2013-03-09 02:00:00,
2013-03-08 18:05:00,49.3,8.8,29.84,West,272,2.7,7.6,19,0.00,,,0.00,VWS V14.01,2013-03-09 02:05:00,
2013-03-08 18:10:00,49.1,10.9,29.84,WSW,244,3.6,5.4,21,0.00,,,0.00,VWS V14.01,2013-03-09 02:10:00,
2013-03-08 18:15:00,48.7,10.6,29.84,North,350,3.1,4.5,21,0.00,,,0.00,VWS V14.01,2013-03-09 02:15:00,
2013-03-08 18:20:00,48.7,13.6,29.84,SW,229,3.6,6.7,24,0.00,,,0.00,VWS V14.01,2013-03-09 02:20:00,
2013-03-08 18:25:00,48.7,13.6,29.84,WSW,240,2.7,5.8,24,0.00,,,0.00,VWS V14.01,2013-03-09 02:25:00,
2013-03-08 18:30:00,48.6,13.4,29.87,SW,215,2.7,4.0,24,0.00,,,0.00,VWS V14.01,2013-03-09 02:30:00,
2013-03-08 18:35:00,48.4,15.1,29.87,West,262,3.1,5.8,26,0.00,,,0.00,VWS V14.01,2013-03-09 02:35:00,
2013-03-08 18:40:00,48.2,14.9,29.87,SW,222,3.1,4.0,26,0.00,,,0.00,VWS V14.01,2013-03-09 02:40:00,
2013-03-08 18:45:00,48.2,15.8,29.87,SSW,199,2.7,4.5,27,0.00,,,0.00,VWS V14.01,2013-03-09 02:45:00,
2013-03-08 18:50:00,48.0,16.5,29.87,SSW,211,4.9,4.9,28,0.00,,,0.00,VWS V14.01,2013-03-09 02:50:00,
2013-03-08 18:55:00,47.8,16.3,29.87,WSW,243,2.7,5.4,28,0.00,,,0.00,VWS V14.01,2013-03-09 02:55:00,
2013-03-08 19:00:00,47.8,17.1,29.87,WSW,244,5.4,5.4,29,0.00,,,0.00,VWS V14.01,2013-03-09 03:00:00,
2013-03-08 19:05:00,47.7,17.0,29.87,WSW,248,3.1,3.6,29,0.00,,,0.00,VWS V14.01,2013-03-09 03:05:00,
2013-03-08 19:10:00,47.5,17.6,29.87,SW,218,4.0,4.0,30,0.00,,,0.00,VWS V14.01,2013-03-09 03:10:00,
2013-03-08 19:15:00,47.3,17.5,29.87,SSW,212,7.2,7.2,30,0.00,,,0.00,VWS V14.01,2013-03-09 03:15:00,
2013-03-08 19:20:00,47.1,18.8,29.87,SSW,204,5.8,5.8,32,0.00,,,0.00,VWS V14.01,2013-03-09 03:20:00,
2013-03-08 19:25:00,47.1,19.5,29.87,SSW,208,3.6,4.0,33,0.00,,,0.00,VWS V14.01,2013-03-09 03:25:00,
2013-03-08 19:30:00,46.9,20.0,29.87,SW,217,3.6,3.6,34,0.00,,,0.00,VWS V14.01,2013-03-09 03:30:00,
2013-03-08 19:35:00,46.8,21.9,29.87,West,280,5.4,5.4,37,0.00,,,0.00,VWS V14.01,2013-03-09 03:35:00,
2013-03-08 19:40:00,46.8,21.9,29.87,West,275,8.7,8.7,37,0.00,,,0.00,VWS V14.01,2013-03-09 03:40:00,
2013-03-08 19:45:00,46.8,21.9,29.87,WSW,246,5.4,5.4,37,0.00,,,0.00,VWS V14.01,2013-03-09 03:45:00,
2013-03-08 19:50:00,46.6,22.4,29.87,WNW,292,7.2,7.6,38,0.00,,,0.00,VWS V14.01,2013-03-09 03:50:00,
2013-03-08 19:55:00,46.6,22.4,29.87,WNW,289,4.0,4.0,38,0.00,,,0.00,VWS V14.01,2013-03-09 03:55:00,
2013-03-08 20:00:00,46.4,22.2,29.87,West,268,4.0,4.0,38,0.00,,,0.00,VWS V14.01,2013-03-09 04:00:00,
2013-03-08 20:05:00,46.4,22.2,29.87,SW,235,4.0,4.0,38,0.00,,,0.00,VWS V14.01,2013-03-09 04:05:00,
2013-03-08 20:10:00,46.2,22.6,29.87,NNW,327,4.0,4.0,39,0.00,,,0.00,VWS V14.01,2013-03-09 04:10:00,
2013-03-08 20:15:00,46.2,22.6,29.90,South,181,3.6,3.6,39,0.00,,,0.00,VWS V14.01,2013-03-09 04:15:00,
2013-03-08 20:20:00,46.2,22.6,29.90,NW,315,3.6,3.6,39,0.00,,,0.00,VWS V14.01,2013-03-09 04:20:00,
2013-03-08 20:25:00,46.2,22.6,29.90,SW,218,3.1,3.1,39,0.00,,,0.00,VWS V14.01,2013-03-09 04:25:00,
2013-03-08 20:30:00,46.2,22.6,29.90,SW,221,3.1,4.0,39,0.00,,,0.00,VWS V14.01,2013-03-09 04:30:00,
2013-03-08 20:35:00,46.0,23.1,29.90,SW,226,3.6,4.0,40,0.00,,,0.00,VWS V14.01,2013-03-09 04:35:00,
2013-03-08 20:40:00,46.0,23.1,29.90,SSW,195,6.3,6.3,40,0.00,,,0.00,VWS V14.01,2013-03-09 04:40:00,
2013-03-08 20:45:00,46.0,23.1,29.90,WNW,292,3.6,3.6,40,0.00,,,0.00,VWS V14.01,2013-03-09 04:45:00,
2013-03-08 20:50:00,46.0,23.1,29.90,WSW,255,0.0,0.0,40,0.00,,,0.00,VWS V14.01,2013-03-09 04:50:00,
2013-03-08 20:55:00,46.0,23.1,29.90,WSW,250,3.1,3.1,40,0.00,,,0.00,VWS V14.01,2013-03-09 04:55:00,
2013-03-08 21:00:00,45.9,22.9,29.93,WNW,284,0.0,0.0,40,0.00,,,0.00,VWS V14.01,2013-03-09 05:00:00,
2013-03-08 21:05:00,45.9,22.9,29.93,West,271,3.1,3.6,40,0.00,,,0.00,VWS V14.01,2013-03-09 05:05:00,
2013-03-08 21:10:00,45.9,22.9,29.93,SW,232,2.7,6.3,40,0.00,,,0.00,VWS V14.01,2013-03-09 05:10:00,
2013-03-08 21:15:00,45.9,22.9,29.93,SW,220,3.1,4.0,40,0.00,,,0.00,VWS V14.01,2013-03-09 05:15:00,
2013-03-08 21:20:00,45.9,22.9,29.93,NW,317,5.4,5.4,40,0.00,,,0.00,VWS V14.01,2013-03-09 05:20:00,
2013-03-08 21:25:00,45.9,22.9,29.93,WSW,241,2.7,6.3,40,0.00,,,0.00,VWS V14.01,2013-03-09 05:25:00,
2013-03-08 21:30:00,45.9,22.9,29.93,SW,216,4.0,4.0,40,0.00,,,0.00,VWS V14.01,2013-03-09 05:30:00,
2013-03-08 21:35:00,45.9,22.9,29.93,SW,230,3.1,3.1,40,0.00,,,0.00,VWS V14.01,2013-03-09 05:35:00,
2013-03-08 21:40:00,45.9,22.9,29.93,SW,231,0.0,0.0,40,0.00,,,0.00,VWS V14.01,2013-03-09 05:40:00,
2013-03-08 21:45:00,45.7,22.8,29.93,SSW,207,4.0,4.0,40,0.00,,,0.00,VWS V14.01,2013-03-09 05:45:00,
2013-03-08 21:50:00,45.7,22.8,29.93,SSW,213,3.1,4.0,40,0.00,,,0.00,VWS V14.01,2013-03-09 05:50:00,
2013-03-08 21:55:00,45.7,22.8,29.93,SW,231,3.6,3.6,40,0.00,,,0.00,VWS V14.01,2013-03-09 05:55:00,
2013-03-08 22:00:00,45.7,22.8,29.93,SSW,207,0.0,3.1,40,0.00,,,0.00,VWS V14.01,2013-03-09 06:00:00,
2013-03-08 22:05:00,45.5,22.6,29.93,West,259,2.7,4.0,40,0.00,,,0.00,VWS V14.01,2013-03-09 06:05:00,
2013-03-08 22:10:00,45.5,22.6,29.93,SSW,211,2.7,3.1,40,0.00,,,0.00,VWS V14.01,2013-03-09 06:10:00,
2013-03-08 22:15:00,45.5,22.6,29.93,NW,308,0.0,2.7,40,0.00,,,0.00,VWS V14.01,2013-03-09 06:15:00,
2013-03-08 22:20:00,45.5,23.2,29.93,WNW,288,3.1,3.6,41,0.00,,,0.00,VWS V14.01,2013-03-09 06:20:00,
2013-03-08 22:25:00,45.5,23.2,29.96,West,263,0.0,2.7,41,0.00,,,0.00,VWS V14.01,2013-03-09 06:25:00,
2013-03-08 22:30:00,45.5,23.2,29.96,SW,218,2.7,2.7,41,0.00,,,0.00,VWS V14.01,2013-03-09 06:30:00,
2013-03-08 22:35:00,45.3,23.0,29.96,WSW,257,3.1,3.1,41,0.00,,,0.00,VWS V14.01,2013-03-09 06:35:00,
2013-03-08 22:40:00,45.3,23.0,29.93,SW,225,4.0,4.0,41,0.00,,,0.00,VWS V14.01,2013-03-09 06:40:00,
2013-03-08 22:45:00,45.3,23.0,29.93,SW,214,2.7,2.7,41,0.00,,,0.00,VWS V14.01,2013-03-09 06:45:00,
2013-03-08 22:50:00,45.1,22.9,29.93,SW,214,0.0,2.2,41,0.00,,,0.00,VWS V14.01,2013-03-09 06:50:00,
2013-03-08 22:55:00,45.0,22.7,29.96,SW,214,0.0,0.0,41,0.00,,,0.00,VWS V14.01,2013-03-09 06:55:00,
2013-03-08 23:00:00,44.8,22.5,29.96,SW,214,0.0,0.0,41,0.00,,,0.00,VWS V14.01,2013-03-09 07:00:00,
2013-03-08 23:05:00,44.6,22.4,29.96,SW,214,0.0,0.0,41,0.00,,,0.00,VWS V14.01,2013-03-09 07:05:00,
2013-03-08 23:10:00,44.6,22.4,29.96,SW,214,0.0,0.0,41,0.00,,,0.00,VWS V14.01,2013-03-09 07:10:00,
2013-03-08 23:15:00,44.4,22.8,29.96,SW,214,0.0,0.0,42,0.00,,,0.00,VWS V14.01,2013-03-09 07:15:00,
2013-03-08 23:20:00,44.2,22.6,29.96,SW,214,0.0,0.0,42,0.00,,,0.00,VWS V14.01,2013-03-09 07:20:00,
2013-03-08 23:25:00,44.2,22.6,29.96,SW,214,0.0,0.0,42,0.00,,,0.00,VWS V14.01,2013-03-09 07:25:00,
2013-03-08 23:30:00,44.1,22.5,29.96,SW,214,0.0,0.0,42,0.00,,,0.00,VWS V14.01,2013-03-09 07:30:00,
2013-03-08 23:35:00,43.9,22.3,29.96,SW,214,0.0,0.0,42,0.00,,,0.00,VWS V14.01,2013-03-09 07:35:00,
2013-03-08 23:40:00,43.9,22.3,29.93,SW,214,2.7,2.7,42,0.00,,,0.00,VWS V14.01,2013-03-09 07:40:00,
2013-03-08 23:45:00,43.9,22.3,29.93,SW,214,0.0,0.0,42,0.00,,,0.00,VWS V14.01,2013-03-09 07:45:00,
2013-03-08 23:50:00,43.7,22.1,29.93,SW,214,0.0,0.0,42,0.00,,,0.00,VWS V14.01,2013-03-09 07:50:00,
2013-03-08 23:55:00,43.7,22.7,29.93,SW,214,0.0,0.0,43,0.00,,,0.00,VWS V14.01,2013-03-09 07:55:00,